sensor_id;sensor_type;location;lat;lon;timestamp;pressure;altitude;pressure_sealevel;temperature
80422;BMP280;69763;50.182;9.144;2023-08-31T00:02:17;99365.78;;;10.94
80422;BMP280;69763;50.182;9.144;2023-08-31T00:04:42;99374.97;;;10.91
80422;BMP280;69763;50.182;9.144;2023-08-31T00:07:08;99367.91;;;10.87
80422;BMP280;69763;50.182;9.144;2023-08-31T00:09:33;99376.69;;;10.80
80422;BMP280;69763;50.182;9.144;2023-08-31T00:12:01;99375.19;;;10.72
80422;BMP280;69763;50.182;9.144;2023-08-31T00:14:26;99372.25;;;10.70
80422;BMP280;69763;50.182;9.144;2023-08-31T00:16:51;99376.63;;;10.73
80422;BMP280;69763;50.182;9.144;2023-08-31T00:19:17;99377.28;;;10.66
80422;BMP280;69763;50.182;9.144;2023-08-31T00:21:43;99371.06;;;10.58
80422;BMP280;69763;50.182;9.144;2023-08-31T00:24:08;99372.31;;;10.57
80422;BMP280;69763;50.182;9.144;2023-08-31T00:26:33;99371.19;;;10.52
80422;BMP280;69763;50.182;9.144;2023-08-31T00:29:00;99369.00;;;10.51
80422;BMP280;69763;50.182;9.144;2023-08-31T00:31:26;99369.75;;;10.51
80422;BMP280;69763;50.182;9.144;2023-08-31T00:33:51;99369.31;;;10.47
80422;BMP280;69763;50.182;9.144;2023-08-31T00:36:16;99367.19;;;10.45
80422;BMP280;69763;50.182;9.144;2023-08-31T00:38:42;99368.97;;;10.43
80422;BMP280;69763;50.182;9.144;2023-08-31T00:41:07;99376.34;;;10.42
80422;BMP280;69763;50.182;9.144;2023-08-31T00:43:32;99387.31;;;10.37
80422;BMP280;69763;50.182;9.144;2023-08-31T00:45:59;99386.59;;;10.36
80422;BMP280;69763;50.182;9.144;2023-08-31T00:48:25;99388.34;;;10.34
80422;BMP280;69763;50.182;9.144;2023-08-31T00:50:50;99387.09;;;10.35
80422;BMP280;69763;50.182;9.144;2023-08-31T00:53:17;99387.72;;;10.41
80422;BMP280;69763;50.182;9.144;2023-08-31T00:55:44;99382.72;;;10.45
80422;BMP280;69763;50.182;9.144;2023-08-31T00:58:09;99384.53;;;10.50
80422;BMP280;69763;50.182;9.144;2023-08-31T01:00:41;99376.81;;;10.54
80422;BMP280;69763;50.182;9.144;2023-08-31T01:03:13;99371.97;;;10.60
80422;BMP280;69763;50.182;9.144;2023-08-31T01:05:45;99372.19;;;10.62
80422;BMP280;69763;50.182;9.144;2023-08-31T01:08:19;99379.81;;;10.64
80422;BMP280;69763;50.182;9.144;2023-08-31T01:10:52;99382.91;;;10.68
80422;BMP280;69763;50.182;9.144;2023-08-31T01:13:24;99387.59;;;10.67
80422;BMP280;69763;50.182;9.144;2023-08-31T01:15:52;99384.34;;;10.69
80422;BMP280;69763;50.182;9.144;2023-08-31T01:18:21;99386.16;;;10.66
80422;BMP280;69763;50.182;9.144;2023-08-31T01:20:53;99388.44;;;10.62
80422;BMP280;69763;50.182;9.144;2023-08-31T01:23:20;99394.38;;;10.61
80422;BMP280;69763;50.182;9.144;2023-08-31T01:25:48;99401.59;;;10.58
80422;BMP280;69763;50.182;9.144;2023-08-31T01:28:14;99405.56;;;10.57
80422;BMP280;69763;50.182;9.144;2023-08-31T01:30:40;99406.59;;;10.54
80422;BMP280;69763;50.182;9.144;2023-08-31T01:33:05;99407.53;;;10.57
80422;BMP280;69763;50.182;9.144;2023-08-31T01:35:34;99411.25;;;10.67
80422;BMP280;69763;50.182;9.144;2023-08-31T01:38:03;99405.19;;;10.74
80422;BMP280;69763;50.182;9.144;2023-08-31T01:40:36;99407.56;;;10.77
80422;BMP280;69763;50.182;9.144;2023-08-31T01:43:06;99403.41;;;10.76
80422;BMP280;69763;50.182;9.144;2023-08-31T01:45:32;99405.59;;;10.78
80422;BMP280;69763;50.182;9.144;2023-08-31T01:47:58;99413.59;;;10.83
80422;BMP280;69763;50.182;9.144;2023-08-31T01:50:23;99416.38;;;10.91
80422;BMP280;69763;50.182;9.144;2023-08-31T01:52:49;99417.50;;;10.96
80422;BMP280;69763;50.182;9.144;2023-08-31T01:55:14;99425.84;;;10.98
80422;BMP280;69763;50.182;9.144;2023-08-31T01:57:39;99422.03;;;11.01
80422;BMP280;69763;50.182;9.144;2023-08-31T02:00:07;99422.97;;;11.03
80422;BMP280;69763;50.182;9.144;2023-08-31T02:02:33;99429.50;;;11.08
80422;BMP280;69763;50.182;9.144;2023-08-31T02:04:58;99429.19;;;11.11
80422;BMP280;69763;50.182;9.144;2023-08-31T02:07:24;99434.09;;;11.13
80422;BMP280;69763;50.182;9.144;2023-08-31T02:09:49;99430.66;;;11.12
80422;BMP280;69763;50.182;9.144;2023-08-31T02:12:14;99426.06;;;11.07
80422;BMP280;69763;50.182;9.144;2023-08-31T02:14:40;99422.81;;;11.09
80422;BMP280;69763;50.182;9.144;2023-08-31T02:17:07;99425.00;;;11.10
80422;BMP280;69763;50.182;9.144;2023-08-31T02:19:32;99423.16;;;11.05
80422;BMP280;69763;50.182;9.144;2023-08-31T02:21:57;99421.13;;;10.98
80422;BMP280;69763;50.182;9.144;2023-08-31T02:24:23;99418.22;;;10.96
80422;BMP280;69763;50.182;9.144;2023-08-31T02:26:48;99414.78;;;10.96
80422;BMP280;69763;50.182;9.144;2023-08-31T02:29:14;99424.00;;;11.00
80422;BMP280;69763;50.182;9.144;2023-08-31T02:31:39;99426.06;;;11.07
80422;BMP280;69763;50.182;9.144;2023-08-31T02:34:06;99422.66;;;11.07
80422;BMP280;69763;50.182;9.144;2023-08-31T02:36:31;99423.34;;;11.07
80422;BMP280;69763;50.182;9.144;2023-08-31T02:38:56;99433.88;;;11.11
80422;BMP280;69763;50.182;9.144;2023-08-31T02:41:22;99429.41;;;11.13
80422;BMP280;69763;50.182;9.144;2023-08-31T02:43:50;99438.97;;;11.14
80422;BMP280;69763;50.182;9.144;2023-08-31T02:46:15;99436.06;;;11.12
80422;BMP280;69763;50.182;9.144;2023-08-31T02:48:40;99438.78;;;11.12
80422;BMP280;69763;50.182;9.144;2023-08-31T02:51:07;99429.72;;;11.10
80422;BMP280;69763;50.182;9.144;2023-08-31T02:53:33;99429.84;;;11.04
80422;BMP280;69763;50.182;9.144;2023-08-31T02:55:59;99425.13;;;10.97
80422;BMP280;69763;50.182;9.144;2023-08-31T02:58:24;99429.22;;;10.91
80422;BMP280;69763;50.182;9.144;2023-08-31T03:00:50;99429.34;;;10.85
80422;BMP280;69763;50.182;9.144;2023-08-31T03:03:15;99433.63;;;10.80
80422;BMP280;69763;50.182;9.144;2023-08-31T03:05:41;99430.00;;;10.78
80422;BMP280;69763;50.182;9.144;2023-08-31T03:08:07;99426.34;;;10.75
80422;BMP280;69763;50.182;9.144;2023-08-31T03:10:33;99426.69;;;10.72
80422;BMP280;69763;50.182;9.144;2023-08-31T03:12:58;99424.28;;;10.68
80422;BMP280;69763;50.182;9.144;2023-08-31T03:15:23;99428.97;;;10.68
80422;BMP280;69763;50.182;9.144;2023-08-31T03:17:49;99430.22;;;10.67
80422;BMP280;69763;50.182;9.144;2023-08-31T03:20:14;99424.81;;;10.67
80422;BMP280;69763;50.182;9.144;2023-08-31T03:22:40;99418.69;;;10.66
80422;BMP280;69763;50.182;9.144;2023-08-31T03:25:07;99427.00;;;10.68
80422;BMP280;69763;50.182;9.144;2023-08-31T03:27:33;99431.16;;;10.69
80422;BMP280;69763;50.182;9.144;2023-08-31T03:29:58;99438.56;;;10.69
80422;BMP280;69763;50.182;9.144;2023-08-31T03:32:23;99436.59;;;10.69
80422;BMP280;69763;50.182;9.144;2023-08-31T03:34:49;99432.94;;;10.67
80422;BMP280;69763;50.182;9.144;2023-08-31T03:37:14;99433.47;;;10.65
80422;BMP280;69763;50.182;9.144;2023-08-31T03:39:39;99430.78;;;10.65
80422;BMP280;69763;50.182;9.144;2023-08-31T03:42:06;99438.16;;;10.65
80422;BMP280;69763;50.182;9.144;2023-08-31T03:44:32;99436.72;;;10.64
80422;BMP280;69763;50.182;9.144;2023-08-31T03:46:57;99431.81;;;10.62
80422;BMP280;69763;50.182;9.144;2023-08-31T03:49:22;99439.94;;;10.62
80422;BMP280;69763;50.182;9.144;2023-08-31T03:51:48;99433.78;;;10.62
80422;BMP280;69763;50.182;9.144;2023-08-31T03:54:13;99427.47;;;10.59
80422;BMP280;69763;50.182;9.144;2023-08-31T03:56:38;99435.38;;;10.57
80422;BMP280;69763;50.182;9.144;2023-08-31T03:59:05;99441.53;;;10.58
80422;BMP280;69763;50.182;9.144;2023-08-31T04:01:31;99448.41;;;10.59
80422;BMP280;69763;50.182;9.144;2023-08-31T04:03:56;99451.31;;;10.61
80422;BMP280;69763;50.182;9.144;2023-08-31T04:06:22;99455.47;;;10.62
80422;BMP280;69763;50.182;9.144;2023-08-31T04:08:47;99455.47;;;10.62
80422;BMP280;69763;50.182;9.144;2023-08-31T04:11:12;99447.34;;;10.62
80422;BMP280;69763;50.182;9.144;2023-08-31T04:13:38;99462.13;;;10.61
80422;BMP280;69763;50.182;9.144;2023-08-31T04:16:05;99466.84;;;10.60
80422;BMP280;69763;50.182;9.144;2023-08-31T04:18:30;99474.44;;;10.62
80422;BMP280;69763;50.182;9.144;2023-08-31T04:20:55;99471.94;;;10.64
80422;BMP280;69763;50.182;9.144;2023-08-31T04:23:21;99481.03;;;10.66
80422;BMP280;69763;50.182;9.144;2023-08-31T04:25:46;99485.88;;;10.68
80422;BMP280;69763;50.182;9.144;2023-08-31T04:28:12;99487.34;;;10.69
80422;BMP280;69763;50.182;9.144;2023-08-31T04:30:38;99485.38;;;10.69
80422;BMP280;69763;50.182;9.144;2023-08-31T04:33:05;99490.06;;;10.69
80422;BMP280;69763;50.182;9.144;2023-08-31T04:35:31;99496.94;;;10.70
80422;BMP280;69763;50.182;9.144;2023-08-31T04:37:56;99497.69;;;10.70
80422;BMP280;69763;50.182;9.144;2023-08-31T04:40:22;99494.22;;;10.70
80422;BMP280;69763;50.182;9.144;2023-08-31T04:42:47;99499.44;;;10.68
80422;BMP280;69763;50.182;9.144;2023-08-31T04:45:12;99489.34;;;10.68
80422;BMP280;69763;50.182;9.144;2023-08-31T04:47:38;99496.94;;;10.70
80422;BMP280;69763;50.182;9.144;2023-08-31T04:50:06;99498.19;;;10.69
80422;BMP280;69763;50.182;9.144;2023-08-31T04:52:32;99501.63;;;10.69
80422;BMP280;69763;50.182;9.144;2023-08-31T04:54:57;99507.25;;;10.71
80422;BMP280;69763;50.182;9.144;2023-08-31T04:57:23;99502.56;;;10.72
80422;BMP280;69763;50.182;9.144;2023-08-31T04:59:48;99506.00;;;10.72
80422;BMP280;69763;50.182;9.144;2023-08-31T05:02:13;99506.19;;;10.74
80422;BMP280;69763;50.182;9.144;2023-08-31T05:04:39;99507.16;;;10.77
80422;BMP280;69763;50.182;9.144;2023-08-31T05:07:05;99506.63;;;10.78
80422;BMP280;69763;50.182;9.144;2023-08-31T05:09:31;99509.72;;;10.82
80422;BMP280;69763;50.182;9.144;2023-08-31T05:11:56;99511.41;;;10.85
80422;BMP280;69763;50.182;9.144;2023-08-31T05:14:21;99515.03;;;10.88
80422;BMP280;69763;50.182;9.144;2023-08-31T05:16:47;99513.56;;;10.87
80422;BMP280;69763;50.182;9.144;2023-08-31T05:19:12;99514.13;;;10.85
80422;BMP280;69763;50.182;9.144;2023-08-31T05:21:38;99520.06;;;10.84
80422;BMP280;69763;50.182;9.144;2023-08-31T05:24:05;99516.63;;;10.83
80422;BMP280;69763;50.182;9.144;2023-08-31T05:26:30;99526.94;;;10.85
80422;BMP280;69763;50.182;9.144;2023-08-31T05:28:56;99532.75;;;10.89
80422;BMP280;69763;50.182;9.144;2023-08-31T05:31:21;99532.25;;;10.91
80422;BMP280;69763;50.182;9.144;2023-08-31T05:33:46;99532.44;;;10.93
80422;BMP280;69763;50.182;9.144;2023-08-31T05:36:12;99540.97;;;10.97
80422;BMP280;69763;50.182;9.144;2023-08-31T05:38:37;99543.88;;;10.99
80422;BMP280;69763;50.182;9.144;2023-08-31T05:41:05;99545.16;;;10.98
80422;BMP280;69763;50.182;9.144;2023-08-31T05:43:31;99558.50;;;10.96
80422;BMP280;69763;50.182;9.144;2023-08-31T05:45:56;99554.16;;;10.93
80422;BMP280;69763;50.182;9.144;2023-08-31T05:48:21;99562.38;;;10.87
80422;BMP280;69763;50.182;9.144;2023-08-31T05:50:47;99559.66;;;10.87
80422;BMP280;69763;50.182;9.144;2023-08-31T05:53:12;99559.13;;;10.88
80422;BMP280;69763;50.182;9.144;2023-08-31T05:55:37;99555.69;;;10.88
80422;BMP280;69763;50.182;9.144;2023-08-31T05:58:04;99562.47;;;10.95
80422;BMP280;69763;50.182;9.144;2023-08-31T06:00:30;99565.44;;;11.04
80422;BMP280;69763;50.182;9.144;2023-08-31T06:02:56;99563.00;;;11.14
80422;BMP280;69763;50.182;9.144;2023-08-31T06:05:21;99570.09;;;11.17
80422;BMP280;69763;50.182;9.144;2023-08-31T06:07:46;99572.69;;;11.22
80422;BMP280;69763;50.182;9.144;2023-08-31T06:10:12;99577.25;;;11.27
80422;BMP280;69763;50.182;9.144;2023-08-31T06:12:37;99583.16;;;11.39
80422;BMP280;69763;50.182;9.144;2023-08-31T06:15:05;99579.25;;;11.48
80422;BMP280;69763;50.182;9.144;2023-08-31T06:17:30;99581.38;;;11.62
80422;BMP280;69763;50.182;9.144;2023-08-31T06:19:56;99586.19;;;11.77
80422;BMP280;69763;50.182;9.144;2023-08-31T06:22:21;99583.28;;;12.03
80422;BMP280;69763;50.182;9.144;2023-08-31T06:24:46;99591.13;;;12.43
80422;BMP280;69763;50.182;9.144;2023-08-31T06:27:12;99590.00;;;12.82
80422;BMP280;69763;50.182;9.144;2023-08-31T06:29:37;99592.06;;;13.12
80422;BMP280;69763;50.182;9.144;2023-08-31T06:32:05;99595.13;;;13.01
80422;BMP280;69763;50.182;9.144;2023-08-31T06:34:30;99605.63;;;12.89
80422;BMP280;69763;50.182;9.144;2023-08-31T06:36:56;99602.69;;;12.79
80422;BMP280;69763;50.182;9.144;2023-08-31T06:39:21;99601.63;;;12.90
80422;BMP280;69763;50.182;9.144;2023-08-31T06:41:47;99610.91;;;13.10
80422;BMP280;69763;50.182;9.144;2023-08-31T06:44:12;99610.75;;;13.23
80422;BMP280;69763;50.182;9.144;2023-08-31T06:46:37;99612.97;;;13.39
80422;BMP280;69763;50.182;9.144;2023-08-31T06:49:04;99617.88;;;13.56
80422;BMP280;69763;50.182;9.144;2023-08-31T06:51:30;99619.88;;;13.86
80422;BMP280;69763;50.182;9.144;2023-08-31T06:53:55;99613.97;;;14.20
80422;BMP280;69763;50.182;9.144;2023-08-31T06:56:20;99617.34;;;14.51
80422;BMP280;69763;50.182;9.144;2023-08-31T06:58:46;99615.53;;;14.86
80422;BMP280;69763;50.182;9.144;2023-08-31T07:01:12;99616.72;;;15.25
80422;BMP280;69763;50.182;9.144;2023-08-31T07:03:37;99600.16;;;15.47
80422;BMP280;69763;50.182;9.144;2023-08-31T07:06:04;99617.25;;;15.73
80422;BMP280;69763;50.182;9.144;2023-08-31T07:08:29;99615.03;;;16.13
80422;BMP280;69763;50.182;9.144;2023-08-31T07:10:55;99612.00;;;16.36
80422;BMP280;69763;50.182;9.144;2023-08-31T07:13:20;99619.78;;;16.13
80422;BMP280;69763;50.182;9.144;2023-08-31T07:15:45;99626.66;;;15.79
80422;BMP280;69763;50.182;9.144;2023-08-31T07:18:11;99639.09;;;15.73
80422;BMP280;69763;50.182;9.144;2023-08-31T07:20:36;99630.38;;;15.91
80422;BMP280;69763;50.182;9.144;2023-08-31T07:23:03;99624.97;;;15.84
80422;BMP280;69763;50.182;9.144;2023-08-31T07:25:29;99635.78;;;15.99
80422;BMP280;69763;50.182;9.144;2023-08-31T07:27:54;99645.56;;;16.36
80422;BMP280;69763;50.182;9.144;2023-08-31T07:30:20;99642.34;;;16.30
80422;BMP280;69763;50.182;9.144;2023-08-31T07:32:45;99642.56;;;16.25
80422;BMP280;69763;50.182;9.144;2023-08-31T07:35:10;99644.03;;;16.26
80422;BMP280;69763;50.182;9.144;2023-08-31T07:37:36;99651.50;;;16.25
80422;BMP280;69763;50.182;9.144;2023-08-31T07:40:04;99659.81;;;16.18
80422;BMP280;69763;50.182;9.144;2023-08-31T07:42:30;99662.69;;;16.20
80422;BMP280;69763;50.182;9.144;2023-08-31T07:44:55;99675.97;;;16.06
80422;BMP280;69763;50.182;9.144;2023-08-31T07:47:20;99674.66;;;15.90
80422;BMP280;69763;50.182;9.144;2023-08-31T07:49:46;99679.44;;;15.64
80422;BMP280;69763;50.182;9.144;2023-08-31T07:52:11;99679.56;;;15.49
80422;BMP280;69763;50.182;9.144;2023-08-31T07:54:36;99680.84;;;15.48
80422;BMP280;69763;50.182;9.144;2023-08-31T07:57:03;99678.09;;;15.48
80422;BMP280;69763;50.182;9.144;2023-08-31T07:59:29;99681.28;;;15.62
80422;BMP280;69763;50.182;9.144;2023-08-31T08:01:54;99677.16;;;15.71
80422;BMP280;69763;50.182;9.144;2023-08-31T08:04:20;99679.00;;;15.93
80422;BMP280;69763;50.182;9.144;2023-08-31T08:06:45;99680.44;;;16.28
80422;BMP280;69763;50.182;9.144;2023-08-31T08:09:10;99675.63;;;16.80
80422;BMP280;69763;50.182;9.144;2023-08-31T08:11:36;99683.94;;;17.26
80422;BMP280;69763;50.182;9.144;2023-08-31T08:14:02;99683.00;;;17.41
80422;BMP280;69763;50.182;9.144;2023-08-31T08:16:29;99687.19;;;17.42
80422;BMP280;69763;50.182;9.144;2023-08-31T08:18:55;99687.88;;;17.42
80422;BMP280;69763;50.182;9.144;2023-08-31T08:21:20;99683.84;;;17.43
80422;BMP280;69763;50.182;9.144;2023-08-31T08:23:45;99683.16;;;17.53
80422;BMP280;69763;50.182;9.144;2023-08-31T08:26:11;99676.97;;;17.52
80422;BMP280;69763;50.182;9.144;2023-08-31T08:28:36;99680.16;;;17.58
80422;BMP280;69763;50.182;9.144;2023-08-31T08:31:03;99681.91;;;17.63
80422;BMP280;69763;50.182;9.144;2023-08-31T08:33:28;99681.19;;;17.63
80422;BMP280;69763;50.182;9.144;2023-08-31T08:35:56;99687.41;;;17.82
80422;BMP280;69763;50.182;9.144;2023-08-31T08:38:21;99691.94;;;18.07
80422;BMP280;69763;50.182;9.144;2023-08-31T08:40:46;99690.78;;;18.19
80422;BMP280;69763;50.182;9.144;2023-08-31T08:43:13;99679.47;;;18.25
80422;BMP280;69763;50.182;9.144;2023-08-31T08:45:39;99696.38;;;18.40
80422;BMP280;69763;50.182;9.144;2023-08-31T08:48:07;99704.31;;;18.46
80422;BMP280;69763;50.182;9.144;2023-08-31T08:50:34;99698.53;;;18.52
80422;BMP280;69763;50.182;9.144;2023-08-31T08:52:59;99697.91;;;18.82
80422;BMP280;69763;50.182;9.144;2023-08-31T08:55:25;99679.53;;;18.75
80422;BMP280;69763;50.182;9.144;2023-08-31T08:57:50;99702.16;;;18.25
80422;BMP280;69763;50.182;9.144;2023-08-31T09:00:16;99700.28;;;18.09
80422;BMP280;69763;50.182;9.144;2023-08-31T09:02:41;99695.25;;;18.15
80422;BMP280;69763;50.182;9.144;2023-08-31T09:05:08;99709.69;;;18.15
80422;BMP280;69763;50.182;9.144;2023-08-31T09:07:34;99703.75;;;18.38
80422;BMP280;69763;50.182;9.144;2023-08-31T09:10:00;99704.66;;;18.90
80422;BMP280;69763;50.182;9.144;2023-08-31T09:12:26;99705.94;;;18.99
80422;BMP280;69763;50.182;9.144;2023-08-31T09:14:58;99702.06;;;18.83
80422;BMP280;69763;50.182;9.144;2023-08-31T09:17:23;99701.41;;;18.63
80422;BMP280;69763;50.182;9.144;2023-08-31T09:19:58;99703.88;;;18.50
80422;BMP280;69763;50.182;9.144;2023-08-31T09:22:25;99712.25;;;18.52
80422;BMP280;69763;50.182;9.144;2023-08-31T09:24:50;99708.22;;;18.33
80422;BMP280;69763;50.182;9.144;2023-08-31T09:27:16;99717.06;;;18.22
80422;BMP280;69763;50.182;9.144;2023-08-31T09:29:45;99711.66;;;18.24
80422;BMP280;69763;50.182;9.144;2023-08-31T09:32:16;99705.03;;;18.47
80422;BMP280;69763;50.182;9.144;2023-08-31T09:34:41;99705.16;;;18.58
80422;BMP280;69763;50.182;9.144;2023-08-31T09:37:08;99705.88;;;18.59
80422;BMP280;69763;50.182;9.144;2023-08-31T09:39:37;99702.22;;;18.85
80422;BMP280;69763;50.182;9.144;2023-08-31T09:42:03;99702.59;;;19.10
80422;BMP280;69763;50.182;9.144;2023-08-31T09:44:28;99701.03;;;19.28
80422;BMP280;69763;50.182;9.144;2023-08-31T09:46:53;99690.03;;;19.59
80422;BMP280;69763;50.182;9.144;2023-08-31T09:49:20;99696.31;;;19.93
80422;BMP280;69763;50.182;9.144;2023-08-31T09:51:47;99690.78;;;20.14
80422;BMP280;69763;50.182;9.144;2023-08-31T09:54:14;99693.34;;;20.33
80422;BMP280;69763;50.182;9.144;2023-08-31T09:56:42;99692.81;;;20.58
80422;BMP280;69763;50.182;9.144;2023-08-31T09:59:09;99684.34;;;21.00
80422;BMP280;69763;50.182;9.144;2023-08-31T10:01:35;99684.94;;;21.22
80422;BMP280;69763;50.182;9.144;2023-08-31T10:04:01;99691.63;;;21.42
80422;BMP280;69763;50.182;9.144;2023-08-31T10:06:27;99696.63;;;21.57
80422;BMP280;69763;50.182;9.144;2023-08-31T10:08:53;99696.16;;;21.86
80422;BMP280;69763;50.182;9.144;2023-08-31T10:11:19;99703.16;;;22.01
80422;BMP280;69763;50.182;9.144;2023-08-31T10:13:47;99701.00;;;22.11
80422;BMP280;69763;50.182;9.144;2023-08-31T10:16:14;99702.81;;;22.31
80422;BMP280;69763;50.182;9.144;2023-08-31T10:18:40;99703.38;;;22.69
80422;BMP280;69763;50.182;9.144;2023-08-31T10:21:05;99707.50;;;22.95
80422;BMP280;69763;50.182;9.144;2023-08-31T10:23:31;99706.88;;;22.96
80422;BMP280;69763;50.182;9.144;2023-08-31T10:26:01;99705.34;;;23.07
80422;BMP280;69763;50.182;9.144;2023-08-31T10:28:27;99705.78;;;22.88
80422;BMP280;69763;50.182;9.144;2023-08-31T10:31:03;99700.88;;;22.48
80422;BMP280;69763;50.182;9.144;2023-08-31T10:33:30;99711.63;;;22.16
80422;BMP280;69763;50.182;9.144;2023-08-31T10:35:56;99711.38;;;21.87
80422;BMP280;69763;50.182;9.144;2023-08-31T10:38:27;99706.44;;;21.60
80422;BMP280;69763;50.182;9.144;2023-08-31T10:41:00;99709.63;;;21.20
80422;BMP280;69763;50.182;9.144;2023-08-31T10:43:26;99716.09;;;20.78
80422;BMP280;69763;50.182;9.144;2023-08-31T10:45:51;99715.38;;;20.77
80422;BMP280;69763;50.182;9.144;2023-08-31T10:48:18;99717.16;;;20.84
80422;BMP280;69763;50.182;9.144;2023-08-31T10:50:45;99715.47;;;20.68
80422;BMP280;69763;50.182;9.144;2023-08-31T10:53:11;99709.69;;;20.52
80422;BMP280;69763;50.182;9.144;2023-08-31T10:55:49;99727.09;;;20.33
80422;BMP280;69763;50.182;9.144;2023-08-31T10:58:15;99714.91;;;20.36
80422;BMP280;69763;50.182;9.144;2023-08-31T11:00:46;99709.97;;;21.03
80422;BMP280;69763;50.182;9.144;2023-08-31T11:03:14;99715.16;;;21.68
80422;BMP280;69763;50.182;9.144;2023-08-31T11:05:51;99712.63;;;22.09
80422;BMP280;69763;50.182;9.144;2023-08-31T11:08:21;99711.97;;;22.61
80422;BMP280;69763;50.182;9.144;2023-08-31T11:10:46;99704.94;;;22.85
80422;BMP280;69763;50.182;9.144;2023-08-31T11:13:16;99707.97;;;22.64
80422;BMP280;69763;50.182;9.144;2023-08-31T11:15:45;99695.06;;;22.16
80422;BMP280;69763;50.182;9.144;2023-08-31T11:18:11;99702.00;;;21.55
80422;BMP280;69763;50.182;9.144;2023-08-31T11:20:37;99699.69;;;21.15
80422;BMP280;69763;50.182;9.144;2023-08-31T11:23:04;99702.06;;;20.85
80422;BMP280;69763;50.182;9.144;2023-08-31T11:25:31;99690.69;;;20.79
80422;BMP280;69763;50.182;9.144;2023-08-31T11:27:57;99696.06;;;20.66
80422;BMP280;69763;50.182;9.144;2023-08-31T11:30:24;99691.25;;;20.55
80422;BMP280;69763;50.182;9.144;2023-08-31T11:32:50;99692.00;;;20.90
80422;BMP280;69763;50.182;9.144;2023-08-31T11:35:16;99694.72;;;21.36
80422;BMP280;69763;50.182;9.144;2023-08-31T11:37:43;99697.03;;;21.77
80422;BMP280;69763;50.182;9.144;2023-08-31T11:40:10;99690.91;;;22.29
80422;BMP280;69763;50.182;9.144;2023-08-31T11:42:35;99698.75;;;22.46
80422;BMP280;69763;50.182;9.144;2023-08-31T11:45:01;99688.94;;;22.57
80422;BMP280;69763;50.182;9.144;2023-08-31T11:47:26;99681.19;;;22.67
80422;BMP280;69763;50.182;9.144;2023-08-31T11:49:52;99685.00;;;22.87
80422;BMP280;69763;50.182;9.144;2023-08-31T11:52:18;99686.44;;;22.88
80422;BMP280;69763;50.182;9.144;2023-08-31T11:54:44;99685.38;;;22.81
80422;BMP280;69763;50.182;9.144;2023-08-31T11:57:10;99680.25;;;22.62
80422;BMP280;69763;50.182;9.144;2023-08-31T11:59:37;99683.44;;;22.18
80422;BMP280;69763;50.182;9.144;2023-08-31T12:02:05;99685.81;;;21.86
80422;BMP280;69763;50.182;9.144;2023-08-31T12:04:31;99685.28;;;21.76
80422;BMP280;69763;50.182;9.144;2023-08-31T12:07:01;99683.19;;;21.63
80422;BMP280;69763;50.182;9.144;2023-08-31T12:09:27;99682.47;;;21.51
80422;BMP280;69763;50.182;9.144;2023-08-31T12:11:53;99679.94;;;21.55
80422;BMP280;69763;50.182;9.144;2023-08-31T12:14:21;99677.44;;;21.59
80422;BMP280;69763;50.182;9.144;2023-08-31T12:16:46;99678.50;;;21.66
80422;BMP280;69763;50.182;9.144;2023-08-31T12:19:12;99677.47;;;21.84
80422;BMP280;69763;50.182;9.144;2023-08-31T12:21:37;99674.53;;;22.19
80422;BMP280;69763;50.182;9.144;2023-08-31T12:24:04;99662.97;;;22.62
80422;BMP280;69763;50.182;9.144;2023-08-31T12:26:30;99671.25;;;22.89
80422;BMP280;69763;50.182;9.144;2023-08-31T12:28:55;99676.06;;;22.88
80422;BMP280;69763;50.182;9.144;2023-08-31T12:31:23;99671.56;;;22.81
80422;BMP280;69763;50.182;9.144;2023-08-31T12:33:48;99665.84;;;22.64
80422;BMP280;69763;50.182;9.144;2023-08-31T12:36:14;99672.53;;;22.33
80422;BMP280;69763;50.182;9.144;2023-08-31T12:38:39;99664.53;;;22.26
80422;BMP280;69763;50.182;9.144;2023-08-31T12:41:05;99667.41;;;22.28
80422;BMP280;69763;50.182;9.144;2023-08-31T12:43:30;99662.28;;;22.22
80422;BMP280;69763;50.182;9.144;2023-08-31T12:45:56;99665.88;;;22.25
80422;BMP280;69763;50.182;9.144;2023-08-31T12:48:22;99667.88;;;22.50
80422;BMP280;69763;50.182;9.144;2023-08-31T12:50:48;99668.00;;;22.79
80422;BMP280;69763;50.182;9.144;2023-08-31T12:53:13;99667.75;;;23.02
80422;BMP280;69763;50.182;9.144;2023-08-31T12:55:39;99667.59;;;22.98
80422;BMP280;69763;50.182;9.144;2023-08-31T12:58:04;99667.88;;;22.90
80422;BMP280;69763;50.182;9.144;2023-08-31T13:00:29;99671.59;;;22.95
80422;BMP280;69763;50.182;9.144;2023-08-31T13:02:55;99674.22;;;22.66
80422;BMP280;69763;50.182;9.144;2023-08-31T13:05:22;99675.25;;;22.59
80422;BMP280;69763;50.182;9.144;2023-08-31T13:07:47;99671.91;;;22.74
80422;BMP280;69763;50.182;9.144;2023-08-31T13:10:13;99674.00;;;22.89
80422;BMP280;69763;50.182;9.144;2023-08-31T13:12:38;99679.88;;;23.09
80422;BMP280;69763;50.182;9.144;2023-08-31T13:15:04;99674.13;;;23.32
80422;BMP280;69763;50.182;9.144;2023-08-31T13:17:29;99672.41;;;23.54
80422;BMP280;69763;50.182;9.144;2023-08-31T13:19:55;99665.22;;;23.63
80422;BMP280;69763;50.182;9.144;2023-08-31T13:22:22;99673.94;;;23.57
80422;BMP280;69763;50.182;9.144;2023-08-31T13:24:48;99660.22;;;23.59
80422;BMP280;69763;50.182;9.144;2023-08-31T13:27:13;99663.72;;;23.46
80422;BMP280;69763;50.182;9.144;2023-08-31T13:29:39;99658.94;;;23.33
80422;BMP280;69763;50.182;9.144;2023-08-31T13:32:05;99662.22;;;23.29
80422;BMP280;69763;50.182;9.144;2023-08-31T13:34:30;99657.53;;;23.32
80422;BMP280;69763;50.182;9.144;2023-08-31T13:36:56;99655.38;;;23.30
80422;BMP280;69763;50.182;9.144;2023-08-31T13:39:22;99644.16;;;23.42
80422;BMP280;69763;50.182;9.144;2023-08-31T13:41:48;99653.13;;;23.27
80422;BMP280;69763;50.182;9.144;2023-08-31T13:44:13;99649.84;;;23.03
80422;BMP280;69763;50.182;9.144;2023-08-31T13:46:38;99658.78;;;23.02
80422;BMP280;69763;50.182;9.144;2023-08-31T13:49:04;99653.34;;;22.90
80422;BMP280;69763;50.182;9.144;2023-08-31T13:51:29;99642.53;;;22.80
80422;BMP280;69763;50.182;9.144;2023-08-31T13:53:55;99647.03;;;22.87
80422;BMP280;69763;50.182;9.144;2023-08-31T13:56:21;99649.97;;;22.91
80422;BMP280;69763;50.182;9.144;2023-08-31T13:58:48;99644.44;;;23.19
80422;BMP280;69763;50.182;9.144;2023-08-31T14:01:13;99639.53;;;23.46
80422;BMP280;69763;50.182;9.144;2023-08-31T14:03:38;99644.69;;;23.68